sensor_id;sensor_type;location;lat;lon;timestamp;temperature;humidity
9157;DHT22;4613;48.392;9.998;2022-10-17T00:01:26;13.40;99.90
9157;DHT22;4613;48.392;9.998;2022-10-17T00:04:16;13.40;99.90
9157;DHT22;4613;48.392;9.998;2022-10-17T00:07:06;13.50;99.90
9157;DHT22;4613;48.392;9.998;2022-10-17T00:09:56;13.40;99.90
9157;DHT22;4613;48.392;9.998;2022-10-17T00:12:45;13.30;99.90
9157;DHT22;4613;48.392;9.998;2022-10-17T00:15:34;13.30;99.90
9157;DHT22;4613;48.392;9.998;2022-10-17T00:18:24;13.20;99.90
9157;DHT22;4613;48.392;9.998;2022-10-17T00:21:17;13.50;99.90
9157;DHT22;4613;48.392;9.998;2022-10-17T00:24:07;13.50;99.90
9157;DHT22;4613;48.392;9.998;2022-10-17T00:26:56;13.50;99.90
9157;DHT22;4613;48.392;9.998;2022-10-17T00:29:49;13.40;99.90
9157;DHT22;4613;48.392;9.998;2022-10-17T00:32:39;13.10;99.90
9157;DHT22;4613;48.392;9.998;2022-10-17T00:35:29;13.30;99.90
9157;DHT22;4613;48.392;9.998;2022-10-17T00:38:18;13.20;99.90
9157;DHT22;4613;48.392;9.998;2022-10-17T00:41:09;13.20;99.90
9157;DHT22;4613;48.392;9.998;2022-10-17T00:44:05;13.10;99.90
9157;DHT22;4613;48.392;9.998;2022-10-17T00:47:05;13.20;99.90
9157;DHT22;4613;48.392;9.998;2022-10-17T00:49:58;13.10;99.90
9157;DHT22;4613;48.392;9.998;2022-10-17T00:52:51;13.10;99.90
9157;DHT22;4613;48.392;9.998;2022-10-17T00:55:50;13.10;99.90
9157;DHT22;4613;48.392;9.998;2022-10-17T00:58:40;13.10;99.90
9157;DHT22;4613;48.392;9.998;2022-10-17T01:01:30;13.00;99.90
9157;DHT22;4613;48.392;9.998;2022-10-17T01:04:20;12.80;99.90
9157;DHT22;4613;48.392;9.998;2022-10-17T01:07:10;13.10;99.90
9157;DHT22;4613;48.392;9.998;2022-10-17T01:09:59;13.00;99.90
9157;DHT22;4613;48.392;9.998;2022-10-17T01:13:25;13.10;99.90
9157;DHT22;4613;48.392;9.998;2022-10-17T01:16:43;12.90;99.90
9157;DHT22;4613;48.392;9.998;2022-10-17T01:26:13;13.10;99.90
9157;DHT22;4613;48.392;9.998;2022-10-17T01:29:28;13.10;99.90
9157;DHT22;4613;48.392;9.998;2022-10-17T01:32:48;13.10;99.90
9157;DHT22;4613;48.392;9.998;2022-10-17T01:35:52;12.80;99.90
9157;DHT22;4613;48.392;9.998;2022-10-17T01:38:48;12.90;99.90
9157;DHT22;4613;48.392;9.998;2022-10-17T01:41:56;13.00;99.90
9157;DHT22;4613;48.392;9.998;2022-10-17T01:45:05;12.80;99.90
9157;DHT22;4613;48.392;9.998;2022-10-17T01:47:57;12.60;99.90
9157;DHT22;4613;48.392;9.998;2022-10-17T01:51:04;12.50;99.90
9157;DHT22;4613;48.392;9.998;2022-10-17T01:54:01;12.30;99.90
9157;DHT22;4613;48.392;9.998;2022-10-17T01:56:57;12.50;99.90
9157;DHT22;4613;48.392;9.998;2022-10-17T01:59:48;12.30;99.90
9157;DHT22;4613;48.392;9.998;2022-10-17T02:02:41;12.20;99.90
9157;DHT22;4613;48.392;9.998;2022-10-17T02:05:35;12.30;99.90
9157;DHT22;4613;48.392;9.998;2022-10-17T02:08:44;12.40;99.90
9157;DHT22;4613;48.392;9.998;2022-10-17T02:11:34;12.30;99.90
9157;DHT22;4613;48.392;9.998;2022-10-17T02:17:28;12.40;99.90
9157;DHT22;4613;48.392;9.998;2022-10-17T02:21:00;12.40;99.90
9157;DHT22;4613;48.392;9.998;2022-10-17T02:24:14;12.30;99.90
9157;DHT22;4613;48.392;9.998;2022-10-17T02:27:14;12.50;99.90
9157;DHT22;4613;48.392;9.998;2022-10-17T02:30:16;12.40;99.90
9157;DHT22;4613;48.392;9.998;2022-10-17T02:33:17;12.20;99.90
9157;DHT22;4613;48.392;9.998;2022-10-17T02:36:21;12.40;99.90
9157;DHT22;4613;48.392;9.998;2022-10-17T02:39:12;12.10;99.90
9157;DHT22;4613;48.392;9.998;2022-10-17T02:42:06;12.00;99.90
9157;DHT22;4613;48.392;9.998;2022-10-17T02:45:01;12.00;99.90
9157;DHT22;4613;48.392;9.998;2022-10-17T02:48:04;11.70;99.90
9157;DHT22;4613;48.392;9.998;2022-10-17T02:56:48;11.80;99.90
9157;DHT22;4613;48.392;9.998;2022-10-17T02:59:39;11.80;99.90
9157;DHT22;4613;48.392;9.998;2022-10-17T03:02:42;11.80;99.90
9157;DHT22;4613;48.392;9.998;2022-10-17T03:05:32;11.70;99.90
9157;DHT22;4613;48.392;9.998;2022-10-17T03:08:22;11.80;99.90
9157;DHT22;4613;48.392;9.998;2022-10-17T03:11:12;11.70;99.90
9157;DHT22;4613;48.392;9.998;2022-10-17T03:14:02;11.80;99.90
9157;DHT22;4613;48.392;9.998;2022-10-17T03:16:52;11.50;99.90
9157;DHT22;4613;48.392;9.998;2022-10-17T03:19:42;11.50;99.90
9157;DHT22;4613;48.392;9.998;2022-10-17T03:22:32;11.60;99.90
9157;DHT22;4613;48.392;9.998;2022-10-17T03:25:24;11.70;99.90
9157;DHT22;4613;48.392;9.998;2022-10-17T03:28:14;11.60;99.90
9157;DHT22;4613;48.392;9.998;2022-10-17T03:31:09;11.50;99.90
9157;DHT22;4613;48.392;9.998;2022-10-17T03:34:01;11.40;99.90
9157;DHT22;4613;48.392;9.998;2022-10-17T03:36:51;11.50;99.90
9157;DHT22;4613;48.392;9.998;2022-10-17T03:39:41;11.60;99.90
9157;DHT22;4613;48.392;9.998;2022-10-17T03:42:30;11.50;99.90
9157;DHT22;4613;48.392;9.998;2022-10-17T03:45:20;11.80;99.90
9157;DHT22;4613;48.392;9.998;2022-10-17T03:48:10;11.70;99.90
9157;DHT22;4613;48.392;9.998;2022-10-17T03:51:03;11.90;99.90
9157;DHT22;4613;48.392;9.998;2022-10-17T03:53:55;11.90;99.90
9157;DHT22;4613;48.392;9.998;2022-10-17T03:56:44;11.60;99.90
9157;DHT22;4613;48.392;9.998;2022-10-17T03:59:37;11.50;99.90
9157;DHT22;4613;48.392;9.998;2022-10-17T04:02:32;11.40;99.90
9157;DHT22;4613;48.392;9.998;2022-10-17T04:05:23;11.40;99.90
9157;DHT22;4613;48.392;9.998;2022-10-17T04:08:13;11.70;99.90
9157;DHT22;4613;48.392;9.998;2022-10-17T04:11:22;11.70;99.90
9157;DHT22;4613;48.392;9.998;2022-10-17T04:14:12;11.70;99.90
9157;DHT22;4613;48.392;9.998;2022-10-17T04:17:03;11.40;99.90
9157;DHT22;4613;48.392;9.998;2022-10-17T04:19:53;11.10;99.90
9157;DHT22;4613;48.392;9.998;2022-10-17T04:22:44;10.80;99.90
9157;DHT22;4613;48.392;9.998;2022-10-17T04:25:35;11.00;99.90
9157;DHT22;4613;48.392;9.998;2022-10-17T04:28:26;11.10;99.90
9157;DHT22;4613;48.392;9.998;2022-10-17T04:31:16;11.10;99.90
9157;DHT22;4613;48.392;9.998;2022-10-17T04:34:26;11.40;99.90
9157;DHT22;4613;48.392;9.998;2022-10-17T04:37:16;11.40;99.90
9157;DHT22;4613;48.392;9.998;2022-10-17T04:40:07;11.50;99.90
9157;DHT22;4613;48.392;9.998;2022-10-17T04:42:58;11.50;99.90
9157;DHT22;4613;48.392;9.998;2022-10-17T04:45:57;11.10;99.90
9157;DHT22;4613;48.392;9.998;2022-10-17T04:48:46;10.90;99.90
9157;DHT22;4613;48.392;9.998;2022-10-17T04:51:37;10.80;99.90
9157;DHT22;4613;48.392;9.998;2022-10-17T04:54:41;10.90;99.90
9157;DHT22;4613;48.392;9.998;2022-10-17T04:57:36;10.90;99.90
9157;DHT22;4613;48.392;9.998;2022-10-17T05:00:34;10.70;99.90
9157;DHT22;4613;48.392;9.998;2022-10-17T05:03:33;10.90;99.90
9157;DHT22;4613;48.392;9.998;2022-10-17T05:06:24;11.20;99.90
9157;DHT22;4613;48.392;9.998;2022-10-17T05:09:34;11.30;99.90
9157;DHT22;4613;48.392;9.998;2022-10-17T05:12:24;11.40;99.90
9157;DHT22;4613;48.392;9.998;2022-10-17T05:15:13;11.20;99.90
9157;DHT22;4613;48.392;9.998;2022-10-17T05:18:04;10.90;99.90
9157;DHT22;4613;48.392;9.998;2022-10-17T05:20:54;10.70;99.90
9157;DHT22;4613;48.392;9.998;2022-10-17T05:23:43;10.70;99.90
9157;DHT22;4613;48.392;9.998;2022-10-17T05:26:33;10.80;99.90
9157;DHT22;4613;48.392;9.998;2022-10-17T05:29:23;10.80;99.90
9157;DHT22;4613;48.392;9.998;2022-10-17T05:32:17;10.80;99.90
9157;DHT22;4613;48.392;9.998;2022-10-17T05:35:07;10.80;99.90
9157;DHT22;4613;48.392;9.998;2022-10-17T05:37:58;10.70;99.90
9157;DHT22;4613;48.392;9.998;2022-10-17T05:40:50;10.80;99.90
9157;DHT22;4613;48.392;9.998;2022-10-17T05:43:40;10.90;99.90
9157;DHT22;4613;48.392;9.998;2022-10-17T05:46:30;10.70;99.90
9157;DHT22;4613;48.392;9.998;2022-10-17T05:49:19;10.70;99.90
9157;DHT22;4613;48.392;9.998;2022-10-17T05:52:09;10.90;99.90
9157;DHT22;4613;48.392;9.998;2022-10-17T05:55:13;10.80;99.90
9157;DHT22;4613;48.392;9.998;2022-10-17T05:58:03;10.90;99.90
9157;DHT22;4613;48.392;9.998;2022-10-17T06:00:59;10.60;99.90
9157;DHT22;4613;48.392;9.998;2022-10-17T06:03:50;10.70;99.90
9157;DHT22;4613;48.392;9.998;2022-10-17T06:06:40;10.60;99.90
9157;DHT22;4613;48.392;9.998;2022-10-17T06:09:30;10.70;99.90
9157;DHT22;4613;48.392;9.998;2022-10-17T06:12:20;10.70;99.90
9157;DHT22;4613;48.392;9.998;2022-10-17T06:15:09;10.70;99.90
9157;DHT22;4613;48.392;9.998;2022-10-17T06:18:01;10.60;99.90
9157;DHT22;4613;48.392;9.998;2022-10-17T06:20:50;10.60;99.90
9157;DHT22;4613;48.392;9.998;2022-10-17T06:23:42;10.70;99.90
9157;DHT22;4613;48.392;9.998;2022-10-17T06:26:37;10.60;99.90
9157;DHT22;4613;48.392;9.998;2022-10-17T06:29:30;10.60;99.90
9157;DHT22;4613;48.392;9.998;2022-10-17T06:32:20;10.90;99.90
9157;DHT22;4613;48.392;9.998;2022-10-17T06:35:09;10.70;99.90
9157;DHT22;4613;48.392;9.998;2022-10-17T06:37:59;11.20;99.90
9157;DHT22;4613;48.392;9.998;2022-10-17T06:40:49;11.50;99.90
9157;DHT22;4613;48.392;9.998;2022-10-17T06:43:41;11.10;99.90
9157;DHT22;4613;48.392;9.998;2022-10-17T06:47:06;11.40;99.90
9157;DHT22;4613;48.392;9.998;2022-10-17T06:49:55;11.60;99.90
9157;DHT22;4613;48.392;9.998;2022-10-17T06:52:54;11.70;99.90
9157;DHT22;4613;48.392;9.998;2022-10-17T06:56:02;12.10;99.90
9157;DHT22;4613;48.392;9.998;2022-10-17T06:59:11;11.90;99.90
9157;DHT22;4613;48.392;9.998;2022-10-17T07:02:03;11.80;99.90
9157;DHT22;4613;48.392;9.998;2022-10-17T07:04:54;12.30;99.90
9157;DHT22;4613;48.392;9.998;2022-10-17T07:07:44;12.30;99.90
9157;DHT22;4613;48.392;9.998;2022-10-17T07:10:33;12.30;99.90
9157;DHT22;4613;48.392;9.998;2022-10-17T07:13:29;12.40;99.90
9157;DHT22;4613;48.392;9.998;2022-10-17T07:16:18;12.40;99.90
9157;DHT22;4613;48.392;9.998;2022-10-17T07:19:12;12.00;99.90
9157;DHT22;4613;48.392;9.998;2022-10-17T07:22:02;12.10;99.90
9157;DHT22;4613;48.392;9.998;2022-10-17T07:24:53;12.20;99.90
9157;DHT22;4613;48.392;9.998;2022-10-17T07:28:11;12.60;99.90
9157;DHT22;4613;48.392;9.998;2022-10-17T07:31:09;12.70;99.90
9157;DHT22;4613;48.392;9.998;2022-10-17T07:33:59;12.40;99.90
9157;DHT22;4613;48.392;9.998;2022-10-17T07:36:49;12.40;99.90
9157;DHT22;4613;48.392;9.998;2022-10-17T07:39:40;13.20;99.90
9157;DHT22;4613;48.392;9.998;2022-10-17T07:42:37;13.80;99.90
9157;DHT22;4613;48.392;9.998;2022-10-17T07:45:28;14.00;99.90
9157;DHT22;4613;48.392;9.998;2022-10-17T07:48:18;14.20;99.90
9157;DHT22;4613;48.392;9.998;2022-10-17T07:51:09;15.10;99.90
9157;DHT22;4613;48.392;9.998;2022-10-17T07:53:58;14.70;99.90
9157;DHT22;4613;48.392;9.998;2022-10-17T07:56:48;14.70;99.90
9157;DHT22;4613;48.392;9.998;2022-10-17T07:59:38;14.50;99.90
9157;DHT22;4613;48.392;9.998;2022-10-17T08:02:27;15.20;99.90
9157;DHT22;4613;48.392;9.998;2022-10-17T08:05:17;15.40;99.90
9157;DHT22;4613;48.392;9.998;2022-10-17T08:08:06;15.30;99.90
9157;DHT22;4613;48.392;9.998;2022-10-17T08:11:01;16.10;99.90
9157;DHT22;4613;48.392;9.998;2022-10-17T08:13:51;15.70;99.90
9157;DHT22;4613;48.392;9.998;2022-10-17T08:16:40;16.60;99.90
9157;DHT22;4613;48.392;9.998;2022-10-17T08:19:29;16.30;99.90
9157;DHT22;4613;48.392;9.998;2022-10-17T08:22:19;16.20;99.90
9157;DHT22;4613;48.392;9.998;2022-10-17T08:25:09;16.00;99.90
9157;DHT22;4613;48.392;9.998;2022-10-17T08:27:58;15.30;99.90
9157;DHT22;4613;48.392;9.998;2022-10-17T08:30:48;15.30;99.90
9157;DHT22;4613;48.392;9.998;2022-10-17T08:33:37;16.30;99.90
9157;DHT22;4613;48.392;9.998;2022-10-17T08:36:29;16.70;99.90
9157;DHT22;4613;48.392;9.998;2022-10-17T08:39:18;16.10;99.90
9157;DHT22;4613;48.392;9.998;2022-10-17T08:42:37;16.90;99.90
9157;DHT22;4613;48.392;9.998;2022-10-17T08:48:23;17.10;99.90
9157;DHT22;4613;48.392;9.998;2022-10-17T08:51:31;17.60;99.90
9157;DHT22;4613;48.392;9.998;2022-10-17T08:57:22;18.10;99.90
9157;DHT22;4613;48.392;9.998;2022-10-17T09:00:18;16.90;99.90
9157;DHT22;4613;48.392;9.998;2022-10-17T09:09:30;17.40;99.90
9157;DHT22;4613;48.392;9.998;2022-10-17T09:12:39;17.10;99.90
9157;DHT22;4613;48.392;9.998;2022-10-17T09:15:39;17.00;99.90
9157;DHT22;4613;48.392;9.998;2022-10-17T09:21:46;18.60;99.90
9157;DHT22;4613;48.392;9.998;2022-10-17T09:24:56;18.10;99.90
9157;DHT22;4613;48.392;9.998;2022-10-17T09:27:53;19.20;99.90
9157;DHT22;4613;48.392;9.998;2022-10-17T09:33:50;18.70;99.90
9157;DHT22;4613;48.392;9.998;2022-10-17T09:36:40;18.00;99.90
9157;DHT22;4613;48.392;9.998;2022-10-17T09:39:30;18.50;99.90
9157;DHT22;4613;48.392;9.998;2022-10-17T09:42:22;18.30;99.90
9157;DHT22;4613;48.392;9.998;2022-10-17T09:45:17;19.60;99.90
9157;DHT22;4613;48.392;9.998;2022-10-17T09:48:33;19.80;99.90
9157;DHT22;4613;48.392;9.998;2022-10-17T09:51:23;18.80;99.90
9157;DHT22;4613;48.392;9.998;2022-10-17T09:58:03;19.00;99.90
9157;DHT22;4613;48.392;9.998;2022-10-17T10:04:13;19.00;99.90
9157;DHT22;4613;48.392;9.998;2022-10-17T10:07:05;19.00;99.90
9157;DHT22;4613;48.392;9.998;2022-10-17T10:09:56;19.10;99.90
9157;DHT22;4613;48.392;9.998;2022-10-17T10:16:15;19.00;99.90
9157;DHT22;4613;48.392;9.998;2022-10-17T10:19:20;18.60;99.90
9157;DHT22;4613;48.392;9.998;2022-10-17T10:22:18;19.60;99.90
9157;DHT22;4613;48.392;9.998;2022-10-17T10:25:14;19.20;99.90
9157;DHT22;4613;48.392;9.998;2022-10-17T10:28:09;18.90;99.90
9157;DHT22;4613;48.392;9.998;2022-10-17T10:31:05;19.50;99.90
9157;DHT22;4613;48.392;9.998;2022-10-17T10:33:55;19.80;99.90
9157;DHT22;4613;48.392;9.998;2022-10-17T10:36:48;18.60;99.90
9157;DHT22;4613;48.392;9.998;2022-10-17T10:39:44;19.80;99.90
9157;DHT22;4613;48.392;9.998;2022-10-17T10:42:45;19.00;99.90
9157;DHT22;4613;48.392;9.998;2022-10-17T10:48:38;19.30;99.90
9157;DHT22;4613;48.392;9.998;2022-10-17T10:51:40;19.30;99.90
9157;DHT22;4613;48.392;9.998;2022-10-17T10:54:39;20.10;99.90
9157;DHT22;4613;48.392;9.998;2022-10-17T10:57:32;19.90;99.90
9157;DHT22;4613;48.392;9.998;2022-10-17T11:00:27;20.10;99.90
9157;DHT22;4613;48.392;9.998;2022-10-17T11:03:36;20.10;99.90
9157;DHT22;4613;48.392;9.998;2022-10-17T11:06:35;19.80;99.90
9157;DHT22;4613;48.392;9.998;2022-10-17T11:12:49;20.40;99.90
9157;DHT22;4613;48.392;9.998;2022-10-17T11:19:09;21.20;99.90
9157;DHT22;4613;48.392;9.998;2022-10-17T11:25:33;21.80;99.90
9157;DHT22;4613;48.392;9.998;2022-10-17T11:28:24;22.10;99.90
9157;DHT22;4613;48.392;9.998;2022-10-17T11:31:15;21.50;99.90
9157;DHT22;4613;48.392;9.998;2022-10-17T11:34:26;22.60;99.90
9157;DHT22;4613;48.392;9.998;2022-10-17T11:37:22;22.80;99.90
9157;DHT22;4613;48.392;9.998;2022-10-17T11:40:20;23.50;99.90
9157;DHT22;4613;48.392;9.998;2022-10-17T11:43:36;22.70;99.90
9157;DHT22;4613;48.392;9.998;2022-10-17T11:46:26;22.20;99.90
9157;DHT22;4613;48.392;9.998;2022-10-17T11:49:21;21.70;99.90
9157;DHT22;4613;48.392;9.998;2022-10-17T11:52:36;21.90;99.90
9157;DHT22;4613;48.392;9.998;2022-10-17T11:55:29;21.90;99.90
9157;DHT22;4613;48.392;9.998;2022-10-17T11:58:32;22.20;99.90
9157;DHT22;4613;48.392;9.998;2022-10-17T12:01:36;22.20;99.90
9157;DHT22;4613;48.392;9.998;2022-10-17T12:04:44;22.30;99.90
9157;DHT22;4613;48.392;9.998;2022-10-17T12:07:51;21.90;99.90
9157;DHT22;4613;48.392;9.998;2022-10-17T12:10:55;22.10;99.90
9157;DHT22;4613;48.392;9.998;2022-10-17T12:13:54;22.40;99.90
9157;DHT22;4613;48.392;9.998;2022-10-17T12:16:45;22.90;99.90
9157;DHT22;4613;48.392;9.998;2022-10-17T12:19:35;23.20;99.90
9157;DHT22;4613;48.392;9.998;2022-10-17T12:22:25;23.20;99.90
9157;DHT22;4613;48.392;9.998;2022-10-17T12:25:29;22.80;99.90
9157;DHT22;4613;48.392;9.998;2022-10-17T12:31:24;22.50;99.90
9157;DHT22;4613;48.392;9.998;2022-10-17T12:34:16;22.80;99.90
9157;DHT22;4613;48.392;9.998;2022-10-17T12:37:10;22.50;99.90
9157;DHT22;4613;48.392;9.998;2022-10-17T12:39:59;22.20;99.90
9157;DHT22;4613;48.392;9.998;2022-10-17T12:42:49;22.40;99.90
9157;DHT22;4613;48.392;9.998;2022-10-17T12:51:28;22.50;99.90
9157;DHT22;4613;48.392;9.998;2022-10-17T12:54:18;22.50;99.90
9157;DHT22;4613;48.392;9.998;2022-10-17T13:00:36;22.30;99.90
9157;DHT22;4613;48.392;9.998;2022-10-17T13:03:32;22.30;99.90
9157;DHT22;4613;48.392;9.998;2022-10-17T13:06:32;22.30;99.90
9157;DHT22;4613;48.392;9.998;2022-10-17T13:09:31;22.20;99.90
9157;DHT22;4613;48.392;9.998;2022-10-17T13:12:24;22.20;99.90
9157;DHT22;4613;48.392;9.998;2022-10-17T13:15:18;22.30;99.90
9157;DHT22;4613;48.392;9.998;2022-10-17T13:18:17;22.30;99.90
9157;DHT22;4613;48.392;9.998;2022-10-17T13:21:14;22.40;99.90
9157;DHT22;4613;48.392;9.998;2022-10-17T13:24:37;22.50;99.90
9157;DHT22;4613;48.392;9.998;2022-10-17T13:27:30;22.50;99.90
9157;DHT22;4613;48.392;9.998;2022-10-17T13:33:40;22.40;99.90
9157;DHT22;4613;48.392;9.998;2022-10-17T13:36:34;22.40;99.90
9157;DHT22;4613;48.392;9.998;2022-10-17T13:39:25;22.30;99.90
9157;DHT22;4613;48.392;9.998;2022-10-17T13:42:47;22.30;99.90
9157;DHT22;4613;48.392;9.998;2022-10-17T13:45:45;22.20;99.90
9157;DHT22;4613;48.392;9.998;2022-10-17T13:48:37;22.20;99.90
9157;DHT22;4613;48.392;9.998;2022-10-17T13:51:26;22.10;99.90
9157;DHT22;4613;48.392;9.998;2022-10-17T13:54:41;22.00;99.90
9157;DHT22;4613;48.392;9.998;2022-10-17T13:57:30;22.10;99.90
9157;DHT22;4613;48.392;9.998;2022-10-17T14:00:21;22.00;99.90
9157;DHT22;4613;48.392;9.998;2022-10-17T14:03:11;22.00;99.90
9157;DHT22;4613;48.392;9.998;2022-10-17T14:06:16;22.10;99.90
9157;DHT22;4613;48.392;9.998;2022-10-17T14:12:10;21.90;99.90
9157;DHT22;4613;48.392;9.998;2022-10-17T14:15:02;22.00;99.90
9157;DHT22;4613;48.392;9.998;2022-10-17T14:18:01;21.90;99.90
9157;DHT22;4613;48.392;9.998;2022-10-17T14:20:51;21.90;99.90
9157;DHT22;4613;48.392;9.998;2022-10-17T14:23:42;21.90;99.90
9157;DHT22;4613;48.392;9.998;2022-10-17T14:26:32;22.10;99.90
9157;DHT22;4613;48.392;9.998;2022-10-17T14:29:31;22.00;99.90
9157;DHT22;4613;48.392;9.998;2022-10-17T14:32:21;21.90;99.90
9157;DHT22;4613;48.392;9.998;2022-10-17T14:35:15;21.90;99.90
9157;DHT22;4613;48.392;9.998;2022-10-17T14:38:06;22.00;99.90
9157;DHT22;4613;48.392;9.998;2022-10-17T14:40:59;22.10;99.90
9157;DHT22;4613;48.392;9.998;2022-10-17T14:43:58;22.00;99.90
9157;DHT22;4613;48.392;9.998;2022-10-17T14:46:52;21.90;99.90
9157;DHT22;4613;48.392;9.998;2022-10-17T14:49:42;21.90;99.90
9157;DHT22;4613;48.392;9.998;2022-10-17T14:52:33;21.90;99.90
9157;DHT22;4613;48.392;9.998;2022-10-17T14:55:25;21.90;99.90
9157;DHT22;4613;48.392;9.998;2022-10-17T14:58:29;22.00;99.90
9157;DHT22;4613;48.392;9.998;2022-10-17T15:01:20;21.90;99.90
9157;DHT22;4613;48.392;9.998;2022-10-17T15:04:10;21.90;99.90
9157;DHT22;4613;48.392;9.998;2022-10-17T15:06:59;21.70;99.90
9157;DHT22;4613;48.392;9.998;2022-10-17T15:09:50;21.70;99.90
9157;DHT22;4613;48.392;9.998;2022-10-17T15:12:40;21.60;99.90
9157;DHT22;4613;48.392;9.998;2022-10-17T15:15:30;21.60;99.90
9157;DHT22;4613;48.392;9.998;2022-10-17T15:18:20;21.60;99.90
9157;DHT22;4613;48.392;9.998;2022-10-17T15:21:12;21.60;99.90
9157;DHT22;4613;48.392;9.998;2022-10-17T15:24:02;21.50;99.90
9157;DHT22;4613;48.392;9.998;2022-10-17T15:26:52;21.50;99.90
9157;DHT22;4613;48.392;9.998;2022-10-17T15:29:43;21.50;99.90
9157;DHT22;4613;48.392;9.998;2022-10-17T15:32:34;21.50;99.90
9157;DHT22;4613;48.392;9.998;2022-10-17T15:35:24;21.50;99.90
9157;DHT22;4613;48.392;9.998;2022-10-17T15:38:16;21.50;99.90
9157;DHT22;4613;48.392;9.998;2022-10-17T15:41:09;21.30;99.90
9157;DHT22;4613;48.392;9.998;2022-10-17T15:43:59;21.30;99.90
9157;DHT22;4613;48.392;9.998;2022-10-17T15:46:48;21.20;99.90
9157;DHT22;4613;48.392;9.998;2022-10-17T15:49:37;21.10;99.90
9157;DHT22;4613;48.392;9.998;2022-10-17T15:52:28;21.20;99.90
9157;DHT22;4613;48.392;9.998;2022-10-17T15:55:18;21.10;99.90
9157;DHT22;4613;48.392;9.998;2022-10-17T15:58:15;21.00;99.90
9157;DHT22;4613;48.392;9.998;2022-10-17T16:01:05;21.00;99.90
9157;DHT22;4613;48.392;9.998;2022-10-17T16:03:55;20.90;99.90
9157;DHT22;4613;48.392;9.998;2022-10-17T16:06:44;20.90;99.90
9157;DHT22;4613;48.392;9.998;2022-10-17T16:09:34;20.80;99.90
9157;DHT22;4613;48.392;9.998;2022-10-17T16:12:30;20.70;99.90
9157;DHT22;4613;48.392;9.998;2022-10-17T16:15:26;20.70;99.90
9157;DHT22;4613;48.392;9.998;2022-10-17T16:18:16;20.60;99.90
9157;DHT22;4613;48.392;9.998;2022-10-17T16:21:05;20.60;99.90
9157;DHT22;4613;48.392;9.998;2022-10-17T16:23:55;20.50;99.90
9157;DHT22;4613;48.392;9.998;2022-10-17T16:26:45;20.50;99.90
9157;DHT22;4613;48.392;9.998;2022-10-17T16:29:34;20.40;99.90
9157;DHT22;4613;48.392;9.998;2022-10-17T16:32:23;20.30;99.90
9157;DHT22;4613;48.392;9.998;2022-10-17T16:35:22;20.10;99.90
9157;DHT22;4613;48.392;9.998;2022-10-17T16:38:12;20.10;99.90
9157;DHT22;4613;48.392;9.998;2022-10-17T16:41:02;19.90;99.90
9157;DHT22;4613;48.392;9.998;2022-10-17T16:43:53;19.90;99.90
9157;DHT22;4613;48.392;9.998;2022-10-17T16:46:43;19.80;99.90
9157;DHT22;4613;48.392;9.998;2022-10-17T16:49:32;19.80;99.90
9157;DHT22;4613;48.392;9.998;2022-10-17T16:52:25;19.80;99.90
9157;DHT22;4613;48.392;9.998;2022-10-17T16:55:14;19.70;99.90
9157;DHT22;4613;48.392;9.998;2022-10-17T16:58:06;19.70;99.90
9157;DHT22;4613;48.392;9.998;2022-10-17T17:01:03;19.60;99.90
9157;DHT22;4613;48.392;9.998;2022-10-17T17:03:53;19.60;99.90
9157;DHT22;4613;48.392;9.998;2022-10-17T17:06:43;19.50;99.90
9157;DHT22;4613;48.392;9.998;2022-10-17T17:09:32;19.50;99.90
9157;DHT22;4613;48.392;9.998;2022-10-17T17:12:22;19.20;99.90
9157;DHT22;4613;48.392;9.998;2022-10-17T17:15:12;19.10;99.90
9157;DHT22;4613;48.392;9.998;2022-10-17T17:18:01;19.10;99.90
9157;DHT22;4613;48.392;9.998;2022-10-17T17:20:51;19.10;99.90
9157;DHT22;4613;48.392;9.998;2022-10-17T17:23:46;19.00;99.90
9157;DHT22;4613;48.392;9.998;2022-10-17T17:26:35;19.00;99.90
9157;DHT22;4613;48.392;9.998;2022-10-17T17:29:25;18.90;99.90
9157;DHT22;4613;48.392;9.998;2022-10-17T17:32:15;18.90;99.90
9157;DHT22;4613;48.392;9.998;2022-10-17T17:35:04;18.80;99.90
9157;DHT22;4613;48.392;9.998;2022-10-17T17:37:54;18.60;99.90
9157;DHT22;4613;48.392;9.998;2022-10-17T17:40:46;18.60;99.90
9157;DHT22;4613;48.392;9.998;2022-10-17T17:43:35;18.50;99.90
9157;DHT22;4613;48.392;9.998;2022-10-17T17:46:25;18.40;99.90
9157;DHT22;4613;48.392;9.998;2022-10-17T17:49:14;18.50;99.90
9157;DHT22;4613;48.392;9.998;2022-10-17T17:52:04;18.50;99.90
9157;DHT22;4613;48.392;9.998;2022-10-17T17:54:54;18.40;99.90
9157;DHT22;4613;48.392;9.998;2022-10-17T17:57:43;18.40;99.90
9157;DHT22;4613;48.392;9.998;2022-10-17T18:00:34;18.20;99.90
9157;DHT22;4613;48.392;9.998;2022-10-17T18:03:24;18.20;99.90
9157;DHT22;4613;48.392;9.998;2022-10-17T18:06:14;18.20;99.90
9157;DHT22;4613;48.392;9.998;2022-10-17T18:09:05;18.10;99.90
9157;DHT22;4613;48.392;9.998;2022-10-17T18:11:55;18.10;99.90
9157;DHT22;4613;48.392;9.998;2022-10-17T18:14:44;18.10;99.90
9157;DHT22;4613;48.392;9.998;2022-10-17T18:17:33;18.00;99.90
9157;DHT22;4613;48.392;9.998;2022-10-17T18:20:22;17.90;99.90
9157;DHT22;4613;48.392;9.998;2022-10-17T18:23:12;17.90;99.90
9157;DHT22;4613;48.392;9.998;2022-10-17T18:26:01;17.90;99.90
9157;DHT22;4613;48.392;9.998;2022-10-17T18:28:50;17.80;99.90
9157;DHT22;4613;48.392;9.998;2022-10-17T18:31:40;17.70;99.90
9157;DHT22;4613;48.392;9.998;2022-10-17T18:34:29;17.70;99.90
9157;DHT22;4613;48.392;9.998;2022-10-17T18:37:18;17.70;99.90
9157;DHT22;4613;48.392;9.998;2022-10-17T18:40:08;17.50;99.90
9157;DHT22;4613;48.392;9.998;2022-10-17T18:42:59;17.60;99.90
9157;DHT22;4613;48.392;9.998;2022-10-17T18:45:49;17.60;99.90
9157;DHT22;4613;48.392;9.998;2022-10-17T18:48:40;17.50;99.90
9157;DHT22;4613;48.392;9.998;2022-10-17T18:51:29;17.50;99.90
9157;DHT22;4613;48.392;9.998;2022-10-17T18:54:21;17.60;99.90
9157;DHT22;4613;48.392;9.998;2022-10-17T18:57:14;17.60;99.90
9157;DHT22;4613;48.392;9.998;2022-10-17T19:00:03;17.50;99.90
9157;DHT22;4613;48.392;9.998;2022-10-17T19:02:53;17.50;99.90
9157;DHT22;4613;48.392;9.998;2022-10-17T19:05:43;17.50;99.90
9157;DHT22;4613;48.392;9.998;2022-10-17T19:08:36;17.40;99.90
9157;DHT22;4613;48.392;9.998;2022-10-17T19:11:27;17.30;99.90
9157;DHT22;4613;48.392;9.998;2022-10-17T19:14:17;17.40;99.90
9157;DHT22;4613;48.392;9.998;2022-10-17T19:17:06;17.40;99.90
9157;DHT22;4613;48.392;9.998;2022-10-17T19:19:56;17.10;99.90
9157;DHT22;4613;48.392;9.998;2022-10-17T19:22:48;17.10;99.90
9157;DHT22;4613;48.392;9.998;2022-10-17T19:25:37;17.10;99.90
9157;DHT22;4613;48.392;9.998;2022-10-17T19:28:27;17.10;99.90
9157;DHT22;4613;48.392;9.998;2022-10-17T19:31:16;17.20;99.90
9157;DHT22;4613;48.392;9.998;2022-10-17T19:34:06;17.20;99.90
9157;DHT22;4613;48.392;9.998;2022-10-17T19:36:55;17.20;99.90
9157;DHT22;4613;48.392;9.998;2022-10-17T19:39:44;17.00;99.90
9157;DHT22;4613;48.392;9.998;2022-10-17T19:42:33;16.90;99.90
9157;DHT22;4613;48.392;9.998;2022-10-17T19:45:26;16.80;99.90
9157;DHT22;4613;48.392;9.998;2022-10-17T19:48:16;16.80;99.90
9157;DHT22;4613;48.392;9.998;2022-10-17T19:51:07;16.80;99.90
9157;DHT22;4613;48.392;9.998;2022-10-17T19:53:59;16.50;99.90
9157;DHT22;4613;48.392;9.998;2022-10-17T19:56:49;16.60;99.90
9157;DHT22;4613;48.392;9.998;2022-10-17T19:59:39;16.50;99.90
9157;DHT22;4613;48.392;9.998;2022-10-17T20:02:28;16.60;99.90
9157;DHT22;4613;48.392;9.998;2022-10-17T20:05:17;16.50;99.90
9157;DHT22;4613;48.392;9.998;2022-10-17T20:08:06;16.40;99.90
9157;DHT22;4613;48.392;9.998;2022-10-17T20:11:01;16.50;99.90